Latest Weather Observations for Mangalore

IDV60801

Issued at 11:35 am EST Sunday 21 September 2014 (issued every 30 minutes, with the page automatically refreshed every 10 minutes)

About weather observations | Map of weather stations | Latest weather observations for VIC | Other Formats
Station Details ID: 088109 Name: MANGALORE AIRPORT Lat: -36.89 Lon: 145.19 Height: 140.8 m
Data from the previous 72 hours. | See also: Recent months at Mangalore
Date/Time
EST
Temp
°C
App
Temp
°C
Dew
Point
Rel
Hum
%
Delta-T
°C
Wind Press
QNH
hPa
Press
MSL
hPa
Rain
since 9 am
mm
Dir
 
Spd
km/h
Gust
km/h
Spd
kts
Gust
kts
21/11:30am 15.6 11.9 4.3 47 5.3 SSW 13 19 7 10 1030.6 1030.8 0.0
21/11:00am 14.7 10.8 3.5 47 5.1 S 13 20 7 11 1030.7 1030.9 0.0
21/10:30am 14.7 11.0 4.7 51 4.7 S 13 19 7 10 1030.8 1031.0 0.0
21/10:00am 14.0 9.6 4.6 53 4.3 S 17 22 9 12 1030.9 1031.1 0.0
21/09:30am 13.2 8.2 3.6 52 4.3 SSE 19 24 10 13 1031.1 1031.3 0.0
21/09:00am 12.6 7.4 3.5 54 4.1 SSE 20 24 11 13 1031.0 1031.2 0.0
21/08:30am 11.7 6.8 4.0 59 3.5 S 19 24 10 13 1030.8 1031.0 0.0
21/08:00am 10.4 5.9 4.1 65 2.8 S 17 22 9 12 1030.8 1031.0 0.0
21/07:30am 9.2 5.4 4.0 70 2.3 S 13 17 7 9 1030.4 1030.6 0.0
21/07:00am 7.7 4.6 3.6 75 1.8 S 9 13 5 7 1029.9 1030.1 0.0
21/06:30am 7.1 2.8 3.2 76 1.7 S 15 19 8 10 1029.6 1029.7 0.0
21/06:00am 7.5 2.9 3.6 76 1.7 S 17 24 9 13 1029.4 1029.5 0.0
21/05:30am 6.9 2.6 3.0 76 1.6 S 15 19 8 10 1029.0 1029.1 0.0
21/05:00am 8.1 3.0 3.2 71 2.1 S 19 24 10 13 1028.9 1029.0 0.0
21/04:30am 8.4 2.8 3.5 71 2.1 S 22 33 12 18 1028.6 1028.7 0.0
21/04:00am 7.9 2.9 3.8 75 1.8 S 19 30 10 16 1028.4 1028.5 0.0
21/03:30am 6.2 2.3 3.4 82 1.2 S 13 19 7 10 1028.0 1028.1 0.0
21/03:00am 6.5 2.2 3.3 80 1.3 SSW 15 20 8 11 1028.0 1028.1 0.0
21/02:30am 7.6 3.0 3.8 77 1.6 S 17 24 9 13 1028.0 1028.1 0.0
21/02:00am 7.8 3.3 4.0 77 1.6 S 17 26 9 14 1028.3 1028.4 0.0
21/01:30am 8.4 2.9 4.0 74 1.9 S 22 33 12 18 1028.4 1028.5 0.0
21/01:00am 8.5 3.6 4.3 75 1.8 S 19 28 10 15 1028.5 1028.6 0.0
21/12:30am 8.7 3.9 4.5 75 1.9 S 19 28 10 15 1028.4 1028.5 0.0
21/12:00am 9.0 4.1 5.0 76 1.8 S 20 30 11 16 1028.4 1028.5 0.0
 
Date/Time
EST
Temp
°C
App
Temp
°C
Dew
Point
Rel
Hum
%
Delta-T
°C
Wind Press
QNH
hPa
Press
MSL
hPa
Rain
since 9 am
mm
Dir
 
Spd
km/h
Gust
km/h
Spd
kts
Gust
kts
20/11:30pm 8.8 4.4 5.0 77 1.7 S 17 24 9 13 1028.6 1028.7 0.0
20/11:00pm 9.1 4.4 5.1 76 1.8 S 19 22 10 12 1028.8 1028.9 0.0
20/10:30pm 9.4 4.5 5.2 75 1.9 S 20 30 11 16 1028.9 1029.0 0.0
20/10:00pm 9.7 5.5 5.5 75 1.9 S 17 28 9 15 1028.9 1029.0 0.0
20/09:30pm 9.7 5.0 5.3 74 2.0 S 19 24 10 13 1029.0 1029.1 0.0
20/09:00pm 9.4 5.9 5.6 77 1.7 S 13 19 7 10 1028.7 1028.8 0.0
20/08:30pm 9.8 5.6 5.8 76 1.8 S 17 22 9 12 1028.3 1028.4 0.0
20/08:00pm 9.8 6.3 5.6 75 1.9 S 13 17 7 9 1028.1 1028.2 0.0
20/07:30pm 10.6 6.8 5.8 72 2.2 S 15 19 8 10 1027.9 1028.0 0.0
20/07:00pm 11.0 7.9 5.7 70 2.5 S 11 15 6 8 1027.4 1027.5 0.0
20/06:30pm 11.6 7.8 5.9 68 2.7 S 15 22 8 12 1027.3 1027.4 0.0
20/06:00pm 12.5 7.9 5.7 63 3.2 S 19 28 10 15 1027.0 1027.1 0.0
20/05:30pm 13.2 8.9 5.4 59 3.7 S 17 24 9 13 1026.8 1026.9 0.0
20/05:00pm 13.8 8.2 5.4 57 3.9 SSE 24 33 13 18 1026.3 1026.4 0.0
20/04:30pm 14.4 9.1 5.2 54 4.4 S 22 30 12 16 1025.9 1026.1 0.0
20/04:00pm 16.0 10.4 5.6 50 5.0 S 24 37 13 20 1025.6 1025.8 0.0
20/03:30pm 15.3 9.6 4.7 49 5.0 S 24 32 13 17 1025.4 1025.6 0.0
20/03:00pm 15.3 10.3 4.7 49 5.0 S 20 28 11 15 1025.4 1025.6 0.0
20/02:30pm 16.0 10.7 5.0 48 5.2 S 22 32 12 17 1025.6 1025.8 0.0
20/02:00pm 15.1 10.0 6.1 55 4.3 S 22 28 12 15 1025.6 1025.8 0.0
20/01:30pm 15.5 9.5 5.1 50 5.0 SE 26 37 14 20 1025.7 1025.9 0.0
20/01:00pm 15.6 9.8 4.6 48 5.2 S 24 35 13 19 1026.0 1026.2 0.0
20/12:30pm 14.5 8.4 5.0 53 4.5 S 26 35 14 19 1026.4 1026.5 0.0
20/12:00pm 15.9 10.5 6.3 53 4.7 SSE 24 32 13 17 1026.7 1026.8 0.0
20/11:30am 15.0 9.1 6.0 55 4.4 SE 26 35 14 19 1026.8 1026.9 0.0
20/11:00am 14.0 7.6 5.4 56 4.0 S 28 37 15 20 1027.1 1027.2 0.0
20/10:46am 13.4 6.8 4.3 54 4.2 S 28 46 15 25 1027.1 1027.2 0.0
20/10:30am 13.3 7.4 5.7 60 3.6 S 26 35 14 19 1027.2 1027.3 0.0
20/10:00am 13.4 8.2 5.6 59 3.7 SSE 22 33 12 18 1027.3 1027.4 0.0
20/09:30am 11.7 6.8 5.3 65 3.0 SSE 20 26 11 14 1027.5 1027.6 0.0
20/09:00am 11.7 7.0 6.0 68 2.7 S 20 30 11 16 1027.1 1027.2 0.0
20/08:30am 11.8 7.2 6.5 70 2.5 S 20 28 11 15 1026.9 1027.0 0.0
20/08:00am 10.4 7.0 6.0 74 2.0 SSW 13 17 7 9 1026.7 1026.8 0.0
20/07:30am 8.4 5.1 6.2 86 1.0 SW 13 17 7 9 1026.3 1026.4 0.0
20/07:00am 6.1 3.9 5.5 96 0.3 SW 6 9 3 5 1025.9 1026.1 0.0
20/06:30am 4.6 0.8 3.7 94 0.4 SW 13 15 7 8 1025.6 1025.8 0.0
20/06:00am 5.7 3.2 4.8 94 0.4 SW 7 9 4 5 1025.4 1025.6 0.0
20/05:30am 4.8 1.3 3.5 91 0.5 SW 11 13 6 7 1025.0 1025.2 0.0
20/05:00am 6.3 3.4 4.8 90 0.7 SW 9 9 5 5 1024.6 1024.8 0.0
20/04:30am 6.7 4.2 5.0 89 0.8 SW 7 9 4 5 1024.5 1024.7 0.0
20/04:00am 7.2 4.9 5.7 90 0.7 SW 7 9 4 5 1024.2 1024.4 0.0
20/03:30am 6.6 3.1 5.6 93 0.4 SSW 13 15 7 8 1024.3 1024.5 0.0
20/03:00am 6.9 4.2 5.4 90 0.7 SSW 9 11 5 6 1024.2 1024.4 0.0
20/02:30am 6.8 4.4 4.5 85 1.0 SSW 6 7 3 4 1024.4 1024.6 0.0
20/02:00am 8.4 5.8 6.0 85 1.1 SSW 9 13 5 7 1024.6 1024.8 0.0
20/01:30am 7.9 5.3 6.2 89 0.8 SSW 9 11 5 6 1024.6 1024.8 0.0
20/01:00am 7.6 4.9 5.6 87 0.9 SSW 9 13 5 7 1024.8 1025.0 0.0
20/12:30am 8.3 5.7 6.1 86 1.0 SSW 9 11 5 6 1024.9 1025.1 0.0
20/12:00am 7.8 5.5 5.8 87 0.9 SSW 7 9 4 5 1024.9 1025.1 0.0
 
Date/Time
EST
Temp
°C
App
Temp
°C
Dew
Point
Rel
Hum
%
Delta-T
°C
Wind Press
QNH
hPa
Press
MSL
hPa
Rain
since 9 am
mm
Dir
 
Spd
km/h
Gust
km/h
Spd
kts
Gust
kts
19/11:30pm 7.7 4.9 5.3 85 1.1 SSW 9 11 5 6 1024.9 1025.1 0.0
19/11:00pm 8.3 5.6 5.6 83 1.2 SSW 9 11 5 6 1025.2 1025.4 0.0
19/10:30pm 8.5 5.8 5.6 82 1.3 SSW 9 13 5 7 1025.3 1025.5 0.0
19/10:00pm 8.4 5.6 5.2 80 1.4 SSW 9 11 5 6 1025.3 1025.5 0.0
19/09:30pm 8.3 5.4 4.9 79 1.5 S 9 13 5 7 1025.3 1025.5 0.0
19/09:00pm 8.4 5.5 4.4 76 1.8 S 9 11 5 6 1025.1 1025.3 0.0
19/08:30pm 9.2 6.2 4.2 71 2.2 S 9 13 5 7 1024.9 1025.1 0.0
19/08:00pm 9.3 6.3 4.3 71 2.2 S 9 13 5 7 1024.7 1024.9 0.0
19/07:30pm 9.4 5.7 4.2 70 2.3 S 13 17 7 9 1024.4 1024.6 0.0
19/07:00pm 10.1 7.1 4.0 66 2.7 S 9 11 5 6 1024.1 1024.3 0.0
19/06:30pm 11.3 7.9 4.1 61 3.2 S 11 15 6 8 1023.7 1023.8 0.0
19/06:00pm 12.0 8.6 4.2 59 3.5 SSE 11 17 6 9 1023.5 1023.6 0.0
19/05:30pm 13.5 9.4 4.1 53 4.3 SSE 15 20 8 11 1023.3 1023.4 0.0
19/05:00pm 14.4 9.6 2.6 45 5.3 SSE 17 24 9 13 1023.1 1023.2 0.0
19/04:30pm 15.2 11.0 3.7 46 5.3 S 15 22 8 12 1022.9 1023.0 0.0
19/04:00pm 15.3 10.6 3.1 44 5.5 S 17 22 9 12 1022.8 1022.9 0.0
19/03:30pm 16.3 11.2 4.0 44 5.8 SSW 20 32 11 17 1022.6 1022.7 0.0
19/03:00pm 15.1 9.7 2.6 43 5.6 S 20 24 11 13 1022.7 1022.8 0.0
19/02:30pm 16.0 10.2 2.4 40 6.1 S 22 35 12 19 1022.8 1022.9 0.0
19/02:00pm 16.3 11.1 3.4 42 5.9 SSW 20 28 11 15 1022.9 1023.0 0.0
19/01:30pm 15.6 10.0 3.4 44 5.6 SSW 22 32 12 17 1023.2 1023.3 0.0
19/01:00pm 15.9 11.0 4.0 45 5.5 SSW 19 28 10 15 1023.5 1023.6 0.0
19/12:30pm 15.4 10.3 2.9 43 5.7 S 19 26 10 14 1023.8 1023.9 0.0
19/12:00pm 15.3 10.3 4.7 49 5.0 S 20 28 11 15 1024.1 1024.3 0.0
19/11:30am 13.8 9.3 4.1 52 4.5 SSW 17 26 9 14 1024.4 1024.6 0.0
19/11:00am 14.0 10.2 5.6 57 4.0 S 15 20 8 11 1024.6 1024.8 0.0
19/10:30am 12.8 9.0 5.7 62 3.4 SSW 15 20 8 11 1025.1 1025.3 0.0
19/10:00am 11.7 8.8 6.4 70 2.5 S 11 20 6 11 1025.3 1025.5 0.0
19/09:30am 10.4 7.4 6.0 74 2.1 SSW 11 17 6 9 1025.4 1025.6 0.0
19/09:00am 9.0 5.9 5.6 79 1.5 SSW 11 15 6 8 1025.4 1025.6 0.0
19/08:30am 6.9 4.6 5.7 92 0.5 SSW 7 11 4 6 1025.5 1025.7 -
19/08:00am 4.4 2.0 4.3 99 0.0 SSW 6 6 3 3 1025.3 1025.5 -
19/07:30am 1.0 -0.8 0.9 99 0.0 CALM 0 4 0 2 1025.1 1025.3 -
19/07:00am -0.2 -3.0 -0.3 99 0.0 SSW 4 9 2 5 1025.2 1025.4 -
19/06:30am -0.3 -3.5 -0.4 99 0.0 SSW 6 7 3 4 1024.9 1025.1 -
19/06:00am 0.1 -3.6 0.0 99 0.0 SSW 9 9 5 5 1024.5 1024.7 -
19/05:30am -0.6 -4.0 -0.9 98 0.1 SSW 7 9 4 5 1024.1 1024.3 -
19/05:00am -0.9 -3.1 -1.2 98 0.1 CALM 0 0 0 0 1023.8 1023.9 -
19/04:30am -1.2 -4.5 -1.6 97 0.1 SSW 6 9 3 5 1023.5 1023.6 -
19/04:24am -1.0 -4.3 -1.4 97 0.1 SSW 6 6 3 3 1023.5 1023.6 -
19/04:07am -0.6 -3.1 -1.0 97 0.1 SSW 2 7 1 4 1023.5 1023.6 -
19/04:00am -0.2 -2.3 -0.5 98 0.1 CALM 0 4 0 2 1023.6 1023.7 -
19/03:40am -0.3 -2.7 -0.6 98 0.1 SSW 2 6 1 3 1023.5 1023.6 -
19/03:30am 0.1 -3.0 0.0 99 0.0 SSW 6 9 3 5 1023.5 1023.6 -
19/03:29am 0.9 -2.1 0.8 99 0.0 SSW 6 9 3 5 1023.5 1023.6 -
19/03:11am -1.1 -4.5 -1.7 96 0.2 SSW 6 6 3 3 1023.5 1023.6 -
19/03:00am -0.6 -3.9 -1.2 96 0.2 SSW 6 7 3 4 1023.6 1023.7 0.0
19/02:59am -0.6 -3.9 -1.2 96 0.2 SSW 6 7 3 4 1023.6 1023.7 -
19/02:30am 1.2 -2.0 0.8 97 0.1 SSW 7 9 4 5 1023.8 1023.9 -
19/02:00am 2.9 0.0 2.6 98 0.1 SSW 7 9 4 5 1024.1 1024.3 -
19/01:30am 1.2 -1.8 0.6 96 0.2 SSW 6 7 3 4 1024.2 1024.4 -
19/01:00am 2.7 -0.3 2.0 95 0.3 SSW 7 9 4 5 1024.3 1024.5 -
19/12:30am 3.0 -0.3 2.4 96 0.2 SSW 9 11 5 6 1024.5 1024.7 -
19/12:00am 3.9 0.8 3.5 97 0.2 SSW 9 9 5 5 1024.5 1024.7 -
 
Date/Time
EST
Temp
°C
App
Temp
°C
Dew
Point
Rel
Hum
%
Delta-T
°C
Wind Press
QNH
hPa
Press
MSL
hPa
Rain
since 9 am
mm
Dir
 
Spd
km/h
Gust
km/h
Spd
kts
Gust
kts
18/11:30pm 2.6 0.9 1.6 93 0.4 CALM 0 4 0 2 1024.7 1024.9 -
18/11:00pm 4.5 1.4 3.8 95 0.3 SSW 9 11 5 6 1024.9 1025.1 -
18/10:30pm 3.3 -0.2 1.5 88 0.7 SSW 9 9 5 5 1024.9 1025.1 -
18/10:00pm 6.2 2.8 4.2 87 0.9 SSW 11 11 6 6 1024.8 1025.0 -
18/09:30pm 6.9 3.9 4.0 82 1.3 SSW 9 9 5 5 1024.6 1024.8 -
18/09:00pm 7.0 4.0 4.1 82 1.2 SSW 9 9 5 5 1024.6 1024.8 0.0
18/08:30pm 6.2 3.1 3.5 83 1.1 S 9 13 5 7 1024.3 1024.5 -
18/08:00pm 7.8 5.2 4.0 77 1.6 S 7 9 4 5 1024.2 1024.4 -
18/07:30pm 8.4 5.3 3.8 73 2.0 S 9 11 5 6 1024.0 1024.2 -
18/07:00pm 8.9 6.2 3.9 71 2.2 S 7 11 4 6 1023.7 1023.8 -
18/06:30pm 9.3 6.3 4.1 70 2.3 S 9 13 5 7 1023.4 1023.5 -
18/06:00pm 10.6 6.8 4.1 64 2.9 SSW 13 17 7 9 1023.2 1023.3 -
18/05:30pm 11.6 7.1 4.3 61 3.3 S 17 24 9 13 1022.8 1022.9 -
18/05:00pm 12.6 7.9 5.1 60 3.5 S 19 26 10 14 1022.5 1022.6 -
18/04:30pm 13.1 8.0 4.3 55 4.0 SSW 20 26 11 14 1022.2 1022.3 -
18/04:00pm 13.9 9.0 5.0 55 4.2 S 20 30 11 16 1022.1 1022.2 -
18/03:30pm 13.4 7.7 2.9 49 4.7 S 22 35 12 19 1022.0 1022.1 -
18/03:00pm 13.8 7.9 3.9 51 4.5 S 24 32 13 17 1021.9 1022.0 0.0
18/02:30pm 13.5 7.1 3.3 50 4.6 S 26 33 14 18 1021.9 1022.0 -
18/02:00pm 13.9 8.4 3.9 51 4.6 S 22 32 12 17 1021.9 1022.0 -
18/01:30pm 13.0 7.4 3.7 53 4.2 S 22 33 12 18 1022.1 1022.2 -
18/01:00pm 14.2 9.5 5.0 54 4.3 SW 19 24 10 13 1022.1 1022.2 -
18/12:30pm 12.4 7.1 3.1 53 4.1 SSW 20 32 11 17 1022.5 1022.6 -
18/12:00pm 12.8 7.7 4.3 56 3.9 SSW 20 30 11 16 1022.7 1022.8 -

Other Formats:

Comma delimited format used in spreadsheet applications
http://www.bom.gov.au/fwo/IDV60801/IDV60801.94874.axf

JavaScript Object Notation format (JSON) in row-major order
http://www.bom.gov.au/fwo/IDV60801/IDV60801.94874.json